JANET44 KLAS-KXTA
Flight info
| Callsign | JANET44 |
|---|---|
| Flight time | 0h 28m |
| Altitude | 17000 |
| Route | LOHLA3 JAYSN SMKEE |
| Aircraft | B737/M-SDE2E3FGHIRWXY/LB1 |
Departure
| Time | 2026-05-04 20:21 |
|---|---|
| Airport | Harry Reid International Airport (KLAS) |
Arrival
| Time | 2026-05-04 20:49 |
|---|---|
| Airport | Homey (Area 51) Airport (KXTA) |
| Time | Latitude | Longitude | Altitude | Speed | Heading |
|---|---|---|---|---|---|
| 2026-05-04 19:58 | 36.09193 | -115.16473 | 2142 ft | 0 kts | 241° |
| 2026-05-04 20:13 | 36.09194 | -115.16472 | 2170 ft | 0 kts | 238° |
| 2026-05-04 20:17 | 36.09192 | -115.16476 | 2142 ft | 4 kts | 236° |
| 2026-05-04 20:17 | 36.09160 | -115.16490 | 2143 ft | 6 kts | 165° |
| 2026-05-04 20:17 | 36.09128 | -115.16431 | 2139 ft | 12 kts | 101° |
| 2026-05-04 20:17 | 36.09166 | -115.16343 | 2132 ft | 14 kts | 24° |
| 2026-05-04 20:18 | 36.09266 | -115.16285 | 2129 ft | 17 kts | 25° |
| 2026-05-04 20:18 | 36.09386 | -115.16216 | 2127 ft | 21 kts | 25° |
| 2026-05-04 20:18 | 36.09528 | -115.16135 | 2120 ft | 24 kts | 25° |
| 2026-05-04 20:18 | 36.09684 | -115.16045 | 2116 ft | 26 kts | 21° |
| 2026-05-04 20:19 | 36.09846 | -115.15952 | 2111 ft | 23 kts | 22° |
| 2026-05-04 20:19 | 36.09958 | -115.15852 | 2106 ft | 21 kts | 69° |
| 2026-05-04 20:19 | 36.09950 | -115.15675 | 2100 ft | 22 kts | 145° |
| 2026-05-04 20:19 | 36.09830 | -115.15721 | 2101 ft | 18 kts | 206° |
| 2026-05-04 20:20 | 36.09742 | -115.15773 | 2101 ft | 0 kts | 204° |
| 2026-05-04 20:20 | 36.09418 | -115.15960 | 2109 ft | 103 kts | 205° |
| 2026-05-04 20:21 | 36.08507 | -115.16494 | 2268 ft | 177 kts | 202° |
| 2026-05-04 20:21 | 36.07362 | -115.17167 | 3383 ft | 189 kts | 208° |
| 2026-05-04 20:21 | 36.05506 | -115.19278 | 4967 ft | 208 kts | 259° |
| 2026-05-04 20:22 | 36.05795 | -115.21088 | 5719 ft | 227 kts | 288° |
| 2026-05-04 20:22 | 36.06378 | -115.22983 | 6486 ft | 244 kts | 284° |
| 2026-05-04 20:22 | 36.06909 | -115.25044 | 7258 ft | 259 kts | 280° |
| 2026-05-04 20:22 | 36.07473 | -115.27234 | 8013 ft | 279 kts | 289° |
| 2026-05-04 20:23 | 36.08757 | -115.29085 | 8732 ft | 301 kts | 322° |
| 2026-05-04 20:23 | 36.10786 | -115.29923 | 9550 ft | 311 kts | 352° |
| 2026-05-04 20:23 | 36.12919 | -115.30088 | 10313 ft | 314 kts | 352° |
| 2026-05-04 20:23 | 36.15132 | -115.30444 | 11059 ft | 326 kts | 346° |
| 2026-05-04 20:24 | 36.17250 | -115.31458 | 11781 ft | 331 kts | 320° |
| 2026-05-04 20:24 | 36.18761 | -115.33581 | 12581 ft | 331 kts | 294° |
| 2026-05-04 20:24 | 36.19743 | -115.36191 | 13385 ft | 337 kts | 288° |
| 2026-05-04 20:24 | 36.20627 | -115.38919 | 14129 ft | 345 kts | 287° |
| 2026-05-04 20:25 | 36.21515 | -115.41713 | 14845 ft | 353 kts | 287° |
| 2026-05-04 20:25 | 36.22438 | -115.44560 | 15581 ft | 360 kts | 287° |
| 2026-05-04 20:25 | 36.23395 | -115.47450 | 16328 ft | 365 kts | 287° |
| 2026-05-04 20:25 | 36.24385 | -115.50417 | 16781 ft | 379 kts | 287° |
| 2026-05-04 20:26 | 36.25411 | -115.53484 | 16963 ft | 397 kts | 288° |
| 2026-05-04 20:26 | 36.26731 | -115.56565 | 16950 ft | 421 kts | 300° |
| 2026-05-04 20:26 | 36.28548 | -115.59526 | 16938 ft | 429 kts | 303° |
| 2026-05-04 20:26 | 36.30390 | -115.62390 | 16926 ft | 430 kts | 304° |
| 2026-05-04 20:27 | 36.32249 | -115.65278 | 16946 ft | 427 kts | 304° |
| 2026-05-04 20:27 | 36.34089 | -115.68169 | 16915 ft | 426 kts | 303° |
| 2026-05-04 20:27 | 36.35911 | -115.71068 | 16925 ft | 426 kts | 303° |
| 2026-05-04 20:27 | 36.37720 | -115.73989 | 16920 ft | 425 kts | 303° |
| 2026-05-04 20:28 | 36.39521 | -115.76906 | 16927 ft | 426 kts | 302° |
| 2026-05-04 20:28 | 36.41319 | -115.79824 | 16903 ft | 424 kts | 303° |
| 2026-05-04 20:28 | 36.43129 | -115.82750 | 16949 ft | 426 kts | 303° |
| 2026-05-04 20:28 | 36.44910 | -115.85658 | 16941 ft | 429 kts | 302° |
| 2026-05-04 20:29 | 36.46726 | -115.88620 | 16886 ft | 430 kts | 303° |
| 2026-05-04 20:29 | 36.48539 | -115.91507 | 16909 ft | 430 kts | 303° |
| 2026-05-04 20:29 | 36.50361 | -115.94466 | 16890 ft | 432 kts | 306° |
| 2026-05-04 20:29 | 36.52693 | -115.96861 | 16904 ft | 443 kts | 327° |
| 2026-05-04 20:30 | 36.55594 | -115.98115 | 16891 ft | 453 kts | 346° |
| 2026-05-04 20:30 | 36.58809 | -115.98191 | 16913 ft | 462 kts | 6° |
| 2026-05-04 20:30 | 36.61899 | -115.97047 | 16930 ft | 467 kts | 24° |
| 2026-05-04 20:30 | 36.64550 | -115.94823 | 16899 ft | 465 kts | 43° |
| 2026-05-04 20:31 | 36.66835 | -115.91970 | 16921 ft | 467 kts | 46° |
| 2026-05-04 20:31 | 36.69085 | -115.89032 | 16909 ft | 468 kts | 47° |
| 2026-05-04 20:31 | 36.71332 | -115.86090 | 16913 ft | 468 kts | 46° |
| 2026-05-04 20:31 | 36.73592 | -115.83167 | 16906 ft | 468 kts | 46° |
| 2026-05-04 20:32 | 36.75863 | -115.80265 | 16912 ft | 467 kts | 46° |
| 2026-05-04 20:32 | 36.78139 | -115.77379 | 16898 ft | 467 kts | 46° |
| 2026-05-04 20:32 | 36.80431 | -115.74485 | 16899 ft | 466 kts | 46° |
| 2026-05-04 20:32 | 36.82687 | -115.71634 | 16885 ft | 466 kts | 46° |
| 2026-05-04 20:33 | 36.84970 | -115.68745 | 16865 ft | 466 kts | 45° |
| 2026-05-04 20:33 | 36.87249 | -115.65856 | 16859 ft | 466 kts | 46° |
| 2026-05-04 20:33 | 36.89522 | -115.62967 | 16837 ft | 466 kts | 46° |
| 2026-05-04 20:33 | 36.91852 | -115.60154 | 16825 ft | 466 kts | 39° |
| 2026-05-04 20:34 | 36.94612 | -115.58077 | 16821 ft | 461 kts | 21° |
| 2026-05-04 20:34 | 36.97687 | -115.57084 | 16826 ft | 455 kts | 4° |
| 2026-05-04 20:34 | 37.00838 | -115.57232 | 16818 ft | 452 kts | 346° |
| 2026-05-04 20:34 | 37.03792 | -115.58354 | 16829 ft | 448 kts | 335° |
| 2026-05-04 20:35 | 37.06668 | -115.59851 | 16819 ft | 447 kts | 333° |
| 2026-05-04 20:35 | 37.09512 | -115.61422 | 16370 ft | 446 kts | 333° |
| 2026-05-04 20:35 | 37.12296 | -115.63002 | 15852 ft | 440 kts | 333° |
| 2026-05-04 20:35 | 37.15033 | -115.64577 | 15397 ft | 436 kts | 333° |
| 2026-05-04 20:36 | 37.17824 | -115.66163 | 14909 ft | 436 kts | 334° |
| 2026-05-04 20:36 | 37.20543 | -115.67717 | 14419 ft | 430 kts | 333° |
| 2026-05-04 20:36 | 37.23248 | -115.69249 | 13933 ft | 417 kts | 333° |
| 2026-05-04 20:36 | 37.25838 | -115.70747 | 13440 ft | 398 kts | 334° |
| 2026-05-04 20:37 | 37.28224 | -115.72119 | 12913 ft | 377 kts | 335° |
| 2026-05-04 20:37 | 37.30569 | -115.73403 | 12382 ft | 360 kts | 335° |
| 2026-05-04 20:37 | 37.32791 | -115.74600 | 11879 ft | 346 kts | 335° |
| 2026-05-04 20:37 | 37.34979 | -115.75771 | 11371 ft | 335 kts | 335° |
| 2026-05-04 20:38 | 37.37083 | -115.76883 | 10858 ft | 325 kts | 335° |
| 2026-05-04 20:38 | 37.39127 | -115.77948 | 10400 ft | 317 kts | 336° |
| 2026-05-04 20:38 | 37.41133 | -115.79001 | 9940 ft | 309 kts | 335° |
| 2026-05-04 20:38 | 37.43086 | -115.80019 | 9750 ft | 294 kts | 335° |
| 2026-05-04 20:39 | 37.44921 | -115.80948 | 9617 ft | 279 kts | 336° |
| 2026-05-04 20:39 | 37.46665 | -115.81842 | 9572 ft | 260 kts | 335° |
| 2026-05-04 20:39 | 37.48273 | -115.82650 | 9603 ft | 239 kts | 335° |
| 2026-05-04 20:39 | 37.49759 | -115.83389 | 9612 ft | 227 kts | 335° |
| 2026-05-04 20:40 | 37.51147 | -115.84275 | 9603 ft | 222 kts | 320° |
| 2026-05-04 20:40 | 37.52428 | -115.85417 | 9632 ft | 229 kts | 321° |
| 2026-05-04 20:40 | 37.53281 | -115.86209 | 9625 ft | 233 kts | 320° |
| 2026-05-04 20:40 | 37.54786 | -115.88042 | 9569 ft | 218 kts | 288° |
| 2026-05-04 20:41 | 37.54960 | -115.89247 | 9607 ft | 209 kts | 259° |
| 2026-05-04 20:41 | 37.54351 | -115.90766 | 9614 ft | 193 kts | 214° |
| 2026-05-04 20:41 | 37.52867 | -115.92048 | 9625 ft | 195 kts | 216° |
| 2026-05-04 20:41 | 37.52160 | -115.92777 | 9599 ft | 197 kts | 213° |
| 2026-05-04 20:42 | 37.50928 | -115.93372 | 9592 ft | 186 kts | 176° |
| 2026-05-04 20:42 | 37.49686 | -115.92975 | 9627 ft | 190 kts | 164° |
| 2026-05-04 20:42 | 37.48416 | -115.92406 | 9617 ft | 195 kts | 161° |
| 2026-05-04 20:42 | 37.47159 | -115.91784 | 9619 ft | 193 kts | 161° |
| 2026-05-04 20:43 | 37.45962 | -115.91168 | 9592 ft | 188 kts | 160° |
| 2026-05-04 20:43 | 37.44766 | -115.90542 | 9625 ft | 187 kts | 161° |
| 2026-05-04 20:43 | 37.43562 | -115.89910 | 9603 ft | 187 kts | 161° |
| 2026-05-04 20:43 | 37.42357 | -115.89274 | 9602 ft | 189 kts | 159° |
| 2026-05-04 20:44 | 37.41124 | -115.88599 | 9311 ft | 192 kts | 161° |
| 2026-05-04 20:44 | 37.39929 | -115.87951 | 8947 ft | 187 kts | 159° |
| 2026-05-04 20:44 | 37.38739 | -115.87320 | 8546 ft | 185 kts | 160° |
| 2026-05-04 20:44 | 37.37569 | -115.86678 | 8186 ft | 181 kts | 159° |
| 2026-05-04 20:45 | 37.36411 | -115.86080 | 7781 ft | 179 kts | 162° |
| 2026-05-04 20:45 | 37.35284 | -115.85467 | 7357 ft | 173 kts | 161° |
| 2026-05-04 20:45 | 37.34191 | -115.84884 | 6946 ft | 169 kts | 161° |
| 2026-05-04 20:45 | 37.33161 | -115.84385 | 6687 ft | 153 kts | 161° |
| 2026-05-04 20:46 | 37.32274 | -115.83930 | 6503 ft | 125 kts | 160° |
| 2026-05-04 20:46 | 37.31473 | -115.83518 | 6219 ft | 127 kts | 159° |
| 2026-05-04 20:46 | 37.30617 | -115.83076 | 5811 ft | 135 kts | 161° |
| 2026-05-04 20:46 | 37.29750 | -115.82612 | 5570 ft | 136 kts | 162° |
| 2026-05-04 20:47 | 37.28871 | -115.82143 | 5411 ft | 139 kts | 163° |
| 2026-05-04 20:47 | 37.27977 | -115.81683 | 5216 ft | 132 kts | 161° |
| 2026-05-04 20:47 | 37.27177 | -115.81260 | 5030 ft | 121 kts | 164° |
| 2026-05-04 20:47 | 37.26372 | -115.80843 | 4836 ft | 131 kts | 159° |
| 2026-05-04 20:48 | 37.25559 | -115.80415 | 4673 ft | 125 kts | 161° |
| 2026-05-04 20:48 | 37.24834 | -115.80034 | 4496 ft | 115 kts | 159° |
| 2026-05-04 20:48 | 37.24405 | -115.79800 | 4474 ft | 107 kts | 159° |
| 2026-05-04 20:48 | 37.24301 | -115.79742 | 4464 ft | 103 kts | 159° |
| 2026-05-04 20:49 | 37.23768 | -115.79472 | 4442 ft | 93 kts | 156° |
| 2026-05-04 20:49 | 37.23251 | -115.79195 | 4440 ft | 64 kts | 157° |
| 2026-05-04 20:49 | 37.22884 | -115.79005 | 4440 ft | 52 kts | 156° |
| 2026-05-04 20:49 | 37.22580 | -115.78843 | 4440 ft | 43 kts | 157° |
| 2026-05-04 20:50 | 37.22321 | -115.78713 | 4441 ft | 37 kts | 155° |
| 2026-05-04 20:50 | 37.22107 | -115.78588 | 4441 ft | 32 kts | 159° |
| 2026-05-04 20:50 | 37.21917 | -115.78475 | 4441 ft | 28 kts | 161° |
| 2026-05-04 20:50 | 37.21808 | -115.78570 | 4441 ft | 21 kts | 266° |
| 2026-05-04 20:51 | 37.21834 | -115.78748 | 4441 ft | 22 kts | 287° |
| 2026-05-04 20:51 | 37.21873 | -115.78932 | 4441 ft | 21 kts | 283° |
| 2026-05-04 20:51 | 37.21906 | -115.79111 | 4441 ft | 21 kts | 277° |
| 2026-05-04 20:51 | 37.21945 | -115.79245 | 4441 ft | 16 kts | 307° |
| 2026-05-04 20:52 | 37.22042 | -115.79311 | 4440 ft | 17 kts | 343° |